createdAt,value
2022-11-23T00:00:09.850Z,0
2022-11-23T00:01:09.845Z,-0.28
2022-11-23T00:02:09.903Z,-0.28
2022-11-23T00:03:09.852Z,-0.17
2022-11-23T00:04:09.865Z,-0.17
2022-11-23T00:05:09.859Z,-0.17
2022-11-23T00:06:09.855Z,-0.28
2022-11-23T00:07:09.948Z,-0.39
2022-11-23T00:08:09.854Z,-0.17
2022-11-23T00:09:09.975Z,-0.28
2022-11-23T00:10:09.873Z,-0.28
2022-11-23T00:11:09.865Z,-0.28
2022-11-23T00:12:09.875Z,-0.28
2022-11-23T00:13:09.872Z,-0.17
2022-11-23T00:14:09.869Z,-0.39
2022-11-23T00:15:09.874Z,-0.39
2022-11-23T00:16:09.882Z,-0.39
2022-11-23T00:17:57.526Z,-0.28
2022-11-23T00:18:09.882Z,-0.17
2022-11-23T00:19:09.878Z,-0.28
2022-11-23T00:20:09.879Z,-0.39
2022-11-23T00:21:09.890Z,-0.28
2022-11-23T00:22:09.883Z,-0.28
2022-11-23T00:23:09.874Z,-0.17
2022-11-23T00:24:09.876Z,-0.28
2022-11-23T00:25:09.997Z,-0.28
2022-11-23T00:26:09.897Z,-0.17
2022-11-23T00:27:09.895Z,-0.28
2022-11-23T00:28:09.891Z,-0.17
2022-11-23T00:29:09.899Z,-0.39
2022-11-23T00:30:09.888Z,-0.39
2022-11-23T00:31:09.894Z,-0.56
2022-11-23T00:32:09.896Z,-0.28
2022-11-23T00:33:09.909Z,-0.17
2022-11-23T00:34:09.898Z,-0.28
2022-11-23T00:35:09.903Z,-0.56
2022-11-23T00:36:09.912Z,-0.56
2022-11-23T00:37:09.910Z,0
2022-11-23T00:38:09.906Z,-0.28
2022-11-23T00:39:09.903Z,-0.17
2022-11-23T00:40:09.905Z,-0.28
2022-11-23T00:41:09.938Z,-0.28
2022-11-23T00:42:09.919Z,-0.17
2022-11-23T00:43:09.914Z,-0.28
2022-11-23T00:44:09.917Z,-0.28
2022-11-23T00:45:09.921Z,-0.17
2022-11-23T00:46:09.922Z,-0.28
2022-11-23T00:47:09.922Z,-0.28
2022-11-23T00:48:09.926Z,-0.28
2022-11-23T00:49:09.922Z,-0.28
2022-11-23T00:50:09.921Z,-0.17
2022-11-23T00:51:09.928Z,-0.39
2022-11-23T00:52:09.931Z,0
2022-11-23T00:53:09.932Z,0
2022-11-23T00:54:09.931Z,0
2022-11-23T00:55:09.933Z,-0.17
2022-11-23T00:56:09.942Z,-0.17
2022-11-23T00:57:09.970Z,0
2022-11-23T00:58:09.931Z,-0.28
2022-11-23T00:59:09.925Z,0
2022-11-23T01:00:09.932Z,-0.28
2022-11-23T01:01:10.060Z,-0.17
2022-11-23T01:02:09.932Z,-0.17
2022-11-23T01:03:09.938Z,-0.17
2022-11-23T01:04:09.941Z,-0.39
2022-11-23T01:05:09.942Z,-0.17
2022-11-23T01:06:09.945Z,-0.17
2022-11-23T01:07:09.973Z,-0.28
2022-11-23T01:08:09.948Z,-0.17
2022-11-23T01:09:09.950Z,0
2022-11-23T01:10:09.951Z,0
2022-11-23T01:11:09.951Z,0.17
2022-11-23T01:12:09.960Z,0
2022-11-23T01:13:09.994Z,-0.56
2022-11-23T01:14:09.961Z,-0.39
2022-11-23T01:15:09.968Z,-0.39
2022-11-23T01:16:09.961Z,0
2022-11-23T01:17:09.954Z,-0.28
2022-11-23T01:18:09.954Z,-0.17
2022-11-23T01:19:09.958Z,-0.17
2022-11-23T01:20:09.965Z,-0.28
2022-11-23T01:21:09.967Z,-0.28
2022-11-23T01:22:09.967Z,-0.39
2022-11-23T01:23:09.966Z,-0.17
2022-11-23T01:24:09.960Z,-0.28
2022-11-23T01:25:09.982Z,-0.28
2022-11-23T01:26:09.963Z,-0.39
2022-11-23T01:27:09.979Z,-0.28
2022-11-23T01:28:09.973Z,-0.39
2022-11-23T01:29:09.993Z,-0.39
2022-11-23T01:30:09.970Z,-0.39
2022-11-23T01:31:09.983Z,-0.17
2022-11-23T01:32:09.996Z,-0.17
2022-11-23T01:33:09.968Z,-0.28
2022-11-23T01:34:09.974Z,-0.39
2022-11-23T01:35:09.973Z,-0.28
2022-11-23T01:36:09.987Z,-0.39
2022-11-23T01:37:09.986Z,-0.28
2022-11-23T01:38:13.819Z,0
2022-11-23T01:39:09.992Z,-0.17
2022-11-23T01:40:09.976Z,-0.28
2022-11-23T01:41:09.987Z,-0.17
2022-11-23T01:42:12.782Z,-0.28
2022-11-23T01:43:09.987Z,-0.28
2022-11-23T01:44:09.993Z,0
2022-11-23T01:45:10.024Z,0
2022-11-23T01:46:09.991Z,0
2022-11-23T01:47:09.986Z,0
2022-11-23T01:48:09.982Z,0
2022-11-23T01:49:09.992Z,0
2022-11-23T01:50:09.993Z,-0.17
2022-11-23T01:51:09.998Z,0
2022-11-23T01:52:10.001Z,-0.28
2022-11-23T01:53:09.998Z,-0.39
2022-11-23T01:54:10.019Z,0
2022-11-23T01:55:09.997Z,-0.17
2022-11-23T01:56:10.007Z,0
2022-11-23T01:57:10.009Z,-0.39
2022-11-23T01:58:09.995Z,-0.28
2022-11-23T01:59:10.004Z,-0.17
2022-11-23T02:00:10.006Z,-0.67
2022-11-23T02:01:10.081Z,0
2022-11-23T02:02:10.011Z,-0.17
2022-11-23T02:03:10.010Z,-0.39
2022-11-23T02:04:10.009Z,-0.28
2022-11-23T02:05:10.012Z,-0.56
2022-11-23T02:06:10.003Z,-0.17
2022-11-23T02:07:10.032Z,0
2022-11-23T02:08:10.011Z,0
2022-11-23T02:09:10.009Z,-0.17
2022-11-23T02:10:10.010Z,-0.28
2022-11-23T02:11:10.017Z,-0.28
2022-11-23T02:12:10.007Z,-0.39
2022-11-23T02:13:10.015Z,-0.39
2022-11-23T02:14:10.020Z,-0.28
2022-11-23T02:15:10.011Z,-0.39
2022-11-23T02:16:10.018Z,-0.17
2022-11-23T02:17:10.037Z,-0.39
2022-11-23T02:18:10.009Z,-0.28
2022-11-23T02:19:10.021Z,-0.17
2022-11-23T02:20:10.012Z,-0.39
2022-11-23T02:21:10.013Z,0
2022-11-23T02:22:10.015Z,0
2022-11-23T02:23:10.025Z,-0.17
2022-11-23T02:24:10.019Z,-0.39
2022-11-23T02:25:10.020Z,-0.17
2022-11-23T02:26:10.021Z,-0.28
2022-11-23T02:27:10.028Z,-0.28
2022-11-23T02:28:10.017Z,-0.67
2022-11-23T02:29:10.024Z,-0.17
2022-11-23T02:30:10.030Z,-0.39
2022-11-23T02:31:10.020Z,-0.17
2022-11-23T02:32:10.025Z,-0.17
2022-11-23T02:33:10.045Z,-0.28
2022-11-23T02:34:10.036Z,-0.28
2022-11-23T02:35:10.031Z,-0.17
2022-11-23T02:36:10.024Z,-0.56
2022-11-23T02:37:10.041Z,-0.28
2022-11-23T02:38:10.023Z,-0.17
2022-11-23T02:39:10.042Z,-0.28
2022-11-23T02:40:10.038Z,-0.17
2022-11-23T02:41:10.025Z,-0.28
2022-11-23T02:42:10.029Z,-0.17
2022-11-23T02:43:10.030Z,-0.28
2022-11-23T02:44:10.027Z,0
2022-11-23T02:45:10.032Z,-0.17
2022-11-23T02:46:10.039Z,-0.17
2022-11-23T02:47:10.130Z,-0.17
2022-11-23T02:48:10.032Z,-0.28
2022-11-23T02:49:13.097Z,-0.17
2022-11-23T02:50:10.036Z,-0.17
2022-11-23T02:51:10.026Z,0
2022-11-23T02:52:10.026Z,-0.17
2022-11-23T02:53:10.035Z,-0.17
2022-11-23T02:54:10.047Z,0
2022-11-23T02:55:10.027Z,-0.28
2022-11-23T02:56:10.023Z,-0.28
2022-11-23T02:57:10.044Z,-0.17
2022-11-23T02:58:10.029Z,-0.17
2022-11-23T02:59:10.041Z,-0.17
2022-11-23T03:00:10.028Z,-0.17
2022-11-23T03:01:10.100Z,0
2022-11-23T03:02:10.033Z,0
2022-11-23T03:03:10.036Z,0
2022-11-23T03:04:10.026Z,0
2022-11-23T03:05:10.055Z,-0.17
2022-11-23T03:06:10.046Z,-0.28
2022-11-23T03:07:10.068Z,-0.17
2022-11-23T03:08:10.039Z,-0.17
2022-11-23T03:09:10.060Z,-0.28
2022-11-23T03:10:10.036Z,-0.17
2022-11-23T03:11:10.037Z,-0.17
2022-11-23T03:12:10.048Z,0
2022-11-23T03:13:10.045Z,-0.28
2022-11-23T03:14:10.044Z,-0.17
2022-11-23T03:15:10.055Z,-0.56
2022-11-23T03:16:10.044Z,-0.17
2022-11-23T03:17:10.044Z,-0.17
2022-11-23T03:18:10.054Z,0
2022-11-23T03:19:10.049Z,-0.28
2022-11-23T03:20:10.056Z,0
2022-11-23T03:21:10.094Z,-0.56
2022-11-23T03:22:10.060Z,-0.28
2022-11-23T03:23:10.071Z,-0.17
2022-11-23T03:24:10.055Z,-0.17
2022-11-23T03:25:10.055Z,-0.28
2022-11-23T03:26:13.006Z,0
2022-11-23T03:27:10.058Z,0
2022-11-23T03:28:10.061Z,-0.17
2022-11-23T03:29:10.068Z,-0.17
2022-11-23T03:30:10.063Z,0
2022-11-23T03:31:10.068Z,0
2022-11-23T03:32:10.069Z,0
2022-11-23T03:33:10.075Z,-0.17
2022-11-23T03:34:10.064Z,-0.28
2022-11-23T03:35:10.068Z,-0.28
2022-11-23T03:36:10.075Z,-0.28
2022-11-23T03:37:10.101Z,-0.28
2022-11-23T03:38:10.077Z,-0.39
2022-11-23T03:39:10.077Z,-0.56
2022-11-23T03:40:10.077Z,-0.39
2022-11-23T03:41:10.079Z,-0.39
2022-11-23T03:42:10.076Z,-0.39
2022-11-23T03:43:10.074Z,-0.39
2022-11-23T03:44:10.096Z,-0.39
2022-11-23T03:45:10.093Z,-0.39
2022-11-23T03:46:10.085Z,-0.28
2022-11-23T03:47:10.078Z,-0.39
2022-11-23T03:48:10.085Z,-0.28
2022-11-23T03:49:10.082Z,-0.56
2022-11-23T03:50:10.087Z,-0.28
2022-11-23T03:51:10.098Z,-0.56
2022-11-23T03:52:10.102Z,-0.39
2022-11-23T03:53:10.116Z,-0.39
2022-11-23T03:54:10.104Z,-0.39
2022-11-23T03:55:10.101Z,-0.56
2022-11-23T03:56:10.098Z,-0.17
2022-11-23T03:57:10.106Z,0
2022-11-23T03:58:10.104Z,-0.56
2022-11-23T03:59:10.108Z,-0.39
2022-11-23T04:00:10.109Z,-0.39
2022-11-23T04:01:10.207Z,-0.28
2022-11-23T04:02:10.097Z,-0.67
2022-11-23T04:03:10.114Z,-0.28
2022-11-23T04:04:10.109Z,-0.17
2022-11-23T04:05:10.115Z,-0.39
2022-11-23T04:06:10.110Z,-0.28
2022-11-23T04:07:10.150Z,-0.39
2022-11-23T04:08:10.120Z,-0.28
2022-11-23T04:09:10.138Z,-0.56
2022-11-23T04:10:10.115Z,-0.39
2022-11-23T04:11:10.122Z,-0.39
2022-11-23T04:12:10.126Z,-0.17
2022-11-23T04:13:10.133Z,-0.28
2022-11-23T04:14:10.123Z,0
2022-11-23T04:15:10.127Z,-0.17
2022-11-23T04:16:10.151Z,-0.17
2022-11-23T04:17:10.129Z,-0.28
2022-11-23T04:18:10.139Z,-0.56
2022-11-23T04:19:10.139Z,-0.56
2022-11-23T04:20:10.137Z,-0.56
2022-11-23T04:21:10.138Z,-0.28
2022-11-23T04:22:10.137Z,-0.28
2022-11-23T04:23:13.208Z,-0.39
2022-11-23T04:24:10.142Z,-0.67
2022-11-23T04:25:10.169Z,-0.39
2022-11-23T04:26:10.132Z,-0.28
2022-11-23T04:27:10.146Z,-0.28
2022-11-23T04:28:10.145Z,-0.39
2022-11-23T04:29:10.146Z,-0.28
2022-11-23T04:30:10.150Z,-0.39
2022-11-23T04:31:10.153Z,-0.28
2022-11-23T04:32:10.152Z,-0.56
2022-11-23T04:33:10.148Z,-0.17
2022-11-23T04:34:10.151Z,0
2022-11-23T04:35:10.146Z,0
2022-11-23T04:36:10.155Z,-0.28
2022-11-23T04:37:13.183Z,-0.17
2022-11-23T04:38:10.151Z,-0.17
2022-11-23T04:39:10.161Z,-0.28
2022-11-23T04:40:10.155Z,-0.39
2022-11-23T04:41:10.174Z,-0.28
2022-11-23T04:42:10.159Z,-0.39
2022-11-23T04:43:10.161Z,-0.39
2022-11-23T04:44:10.169Z,-0.17
2022-11-23T04:45:10.163Z,-0.17
2022-11-23T04:46:10.177Z,-0.28
2022-11-23T04:47:10.163Z,-0.39
2022-11-23T04:48:10.167Z,-0.17
2022-11-23T04:49:10.166Z,-0.39
2022-11-23T04:50:10.168Z,-0.28
2022-11-23T04:51:10.175Z,0
2022-11-23T04:52:10.175Z,-0.17
2022-11-23T04:53:10.169Z,-0.17
2022-11-23T04:54:10.179Z,-0.39
2022-11-23T04:55:10.183Z,-0.17
2022-11-23T04:56:10.171Z,-0.17
2022-11-23T04:57:10.365Z,-0.17
2022-11-23T04:58:10.177Z,-0.17
2022-11-23T04:59:10.174Z,-0.28
2022-11-23T05:00:10.177Z,-0.17
2022-11-23T05:01:10.285Z,0
2022-11-23T05:02:10.172Z,0
2022-11-23T05:03:10.184Z,0
2022-11-23T05:04:13.549Z,-0.28
2022-11-23T05:05:10.182Z,-0.17
2022-11-23T05:06:10.183Z,0
2022-11-23T05:07:10.240Z,-0.39
2022-11-23T05:08:10.195Z,-0.28
2022-11-23T05:09:10.191Z,-0.17
2022-11-23T05:10:10.195Z,-0.17
2022-11-23T05:11:10.189Z,-0.28
2022-11-23T05:12:10.188Z,-0.28
2022-11-23T05:13:10.211Z,-0.17
2022-11-23T05:14:10.184Z,0
2022-11-23T05:15:10.193Z,-0.28
2022-11-23T05:16:10.198Z,0
2022-11-23T05:17:10.200Z,-0.17
2022-11-23T05:18:10.197Z,0
2022-11-23T05:19:10.190Z,0
2022-11-23T05:20:10.207Z,0
2022-11-23T05:21:10.201Z,-0.17
2022-11-23T05:22:10.208Z,-0.28
2022-11-23T05:23:10.203Z,0
2022-11-23T05:24:10.201Z,0
2022-11-23T05:25:10.210Z,-0.17
2022-11-23T05:26:10.200Z,0
2022-11-23T05:27:10.207Z,0
2022-11-23T05:28:30.428Z,0
2022-11-23T05:29:10.221Z,0
2022-11-23T05:30:10.209Z,-0.28
2022-11-23T05:31:10.211Z,-0.17
2022-11-23T05:32:10.224Z,-0.17
2022-11-23T05:33:10.210Z,-0.39
2022-11-23T05:34:10.215Z,-0.28
2022-11-23T05:35:10.216Z,-0.17
2022-11-23T05:36:10.213Z,-0.17
2022-11-23T05:37:10.221Z,-0.39
2022-11-23T05:38:10.212Z,-0.17
2022-11-23T05:39:10.214Z,-0.28
2022-11-23T05:40:10.219Z,-0.17
2022-11-23T05:41:10.217Z,0
2022-11-23T05:42:10.219Z,-0.28
2022-11-23T05:43:10.216Z,-0.28
2022-11-23T05:44:10.228Z,-0.28
2022-11-23T05:45:11.813Z,-0.28
2022-11-23T05:46:10.229Z,-0.17
2022-11-23T05:47:10.231Z,-0.39
2022-11-23T05:48:10.228Z,-0.56
2022-11-23T05:49:10.232Z,-0.56
2022-11-23T05:50:10.224Z,-0.17
2022-11-23T05:51:10.234Z,-0.39
2022-11-23T05:52:10.235Z,-0.17
2022-11-23T05:53:10.241Z,-0.56
2022-11-23T05:54:10.235Z,-0.17
2022-11-23T05:55:10.235Z,-0.39
2022-11-23T05:56:10.242Z,-0.28
2022-11-23T05:57:10.242Z,-0.39
2022-11-23T05:58:10.237Z,-0.17
2022-11-23T05:59:10.251Z,-0.28
2022-11-23T06:00:10.238Z,-0.28
2022-11-23T06:01:10.267Z,-0.28
2022-11-23T06:02:10.255Z,-0.28
2022-11-23T06:03:10.253Z,0
2022-11-23T06:04:10.302Z,-0.28
2022-11-23T06:05:10.252Z,-0.39
2022-11-23T06:06:10.246Z,-0.17
2022-11-23T06:07:10.306Z,-0.17
2022-11-23T06:08:10.255Z,-0.17
2022-11-23T06:09:10.256Z,-0.28
2022-11-23T06:10:10.251Z,-0.17
2022-11-23T06:11:10.247Z,-0.39
2022-11-23T06:12:10.264Z,-0.28
2022-11-23T06:13:10.267Z,-0.17
2022-11-23T06:14:14.143Z,-0.17
2022-11-23T06:15:10.258Z,-0.17
2022-11-23T06:16:10.253Z,-0.17
2022-11-23T06:17:10.290Z,-0.17
2022-11-23T06:18:10.267Z,0
2022-11-23T06:19:10.281Z,-0.39
2022-11-23T06:20:10.270Z,0.17
2022-11-23T06:21:10.260Z,-0.17
2022-11-23T06:22:10.268Z,-0.28
2022-11-23T06:23:10.271Z,-0.17
2022-11-23T06:24:10.269Z,-0.17
2022-11-23T06:25:10.261Z,-0.17
2022-11-23T06:26:10.273Z,0
2022-11-23T06:27:12.953Z,0
2022-11-23T06:28:10.295Z,-0.28
2022-11-23T06:29:10.276Z,-0.17
2022-11-23T06:30:10.278Z,-0.28
2022-11-23T06:31:10.295Z,-0.28
2022-11-23T06:32:10.279Z,0
2022-11-23T06:33:10.299Z,0
2022-11-23T06:34:10.275Z,0
2022-11-23T06:35:10.292Z,-0.17
2022-11-23T06:36:10.274Z,-0.28
2022-11-23T06:37:10.276Z,0
2022-11-23T06:38:10.292Z,0
2022-11-23T06:39:10.282Z,-0.28
2022-11-23T06:40:10.282Z,0.17
2022-11-23T06:41:10.286Z,0
2022-11-23T06:42:36.945Z,-0.17
2022-11-23T06:43:10.293Z,-0.28
2022-11-23T06:44:10.291Z,0
2022-11-23T06:45:10.289Z,-0.28
2022-11-23T06:46:10.292Z,0
2022-11-23T06:47:13.972Z,-0.17
2022-11-23T06:48:10.287Z,-0.28
2022-11-23T06:49:10.319Z,0
2022-11-23T06:50:10.291Z,0
2022-11-23T06:51:10.286Z,0
2022-11-23T06:52:10.297Z,0
2022-11-23T06:53:10.295Z,0
2022-11-23T06:54:10.299Z,-0.17
2022-11-23T06:55:10.298Z,0.17
2022-11-23T06:56:10.299Z,0.17
2022-11-23T06:57:10.304Z,0
2022-11-23T06:58:10.300Z,0
2022-11-23T06:59:10.301Z,0
2022-11-23T07:00:10.296Z,0.28
2022-11-23T07:01:10.374Z,0
2022-11-23T07:02:10.296Z,-0.17
2022-11-23T07:03:10.339Z,-0.17
2022-11-23T07:04:10.308Z,-0.17
2022-11-23T07:05:10.320Z,0.17
2022-11-23T07:06:10.293Z,0.17
2022-11-23T07:07:10.396Z,0
2022-11-23T07:08:10.302Z,0
2022-11-23T07:09:10.302Z,-0.17
2022-11-23T07:10:10.308Z,-0.28
2022-11-23T07:11:10.313Z,0
2022-11-23T07:12:10.306Z,0.28
2022-11-23T07:13:10.301Z,0.17
2022-11-23T07:14:10.313Z,0.17
2022-11-23T07:15:10.305Z,0
2022-11-23T07:16:10.307Z,0
2022-11-23T07:17:12.696Z,-0.17
2022-11-23T07:18:10.311Z,0
2022-11-23T07:19:10.302Z,0
2022-11-23T07:20:10.309Z,0
2022-11-23T07:21:10.335Z,0.17
2022-11-23T07:22:10.311Z,0.28
2022-11-23T07:23:10.303Z,0.17
2022-11-23T07:24:10.304Z,0.44
2022-11-23T07:25:10.305Z,0.44
2022-11-23T07:26:10.309Z,0.28
2022-11-23T07:27:10.304Z,0.44
2022-11-23T07:28:10.317Z,0.44
2022-11-23T07:29:10.313Z,0.28
2022-11-23T07:30:10.314Z,0.44
2022-11-23T07:31:10.307Z,0.28
2022-11-23T07:32:10.311Z,0.61
2022-11-23T07:33:10.309Z,0.44
2022-11-23T07:34:10.315Z,0.28
2022-11-23T07:35:10.309Z,0.44
2022-11-23T07:36:10.308Z,0.44
2022-11-23T07:37:10.345Z,0.44
2022-11-23T07:38:10.313Z,0.44
2022-11-23T07:39:10.317Z,0.44
2022-11-23T07:40:10.313Z,0.17
2022-11-23T07:41:10.305Z,0.44
2022-11-23T07:42:31.445Z,0.44
2022-11-23T07:43:10.330Z,0.17
2022-11-23T07:44:10.310Z,0.72
2022-11-23T07:45:10.314Z,0.61
2022-11-23T07:46:10.307Z,0.89
2022-11-23T07:47:10.318Z,0.72
2022-11-23T07:48:10.328Z,0.72
2022-11-23T07:49:10.312Z,0.61
2022-11-23T07:50:10.317Z,0.61
2022-11-23T07:51:10.318Z,0.17
2022-11-23T07:52:10.302Z,0.72
2022-11-23T07:53:10.339Z,0.44
2022-11-23T07:54:10.312Z,0.28
2022-11-23T07:55:10.314Z,0.28
2022-11-23T07:56:10.311Z,0.44
2022-11-23T07:57:10.316Z,0.44
2022-11-23T07:58:10.322Z,0.17
2022-11-23T07:59:10.318Z,0.44
2022-11-23T08:00:10.318Z,0.61
2022-11-23T08:01:10.319Z,0.44
2022-11-23T08:02:10.903Z,-0.17
2022-11-23T08:04:10.323Z,-0.17
2022-11-23T08:05:14.151Z,0
2022-11-23T08:06:10.335Z,0.44
2022-11-23T08:07:10.371Z,0.17
2022-11-23T08:08:10.318Z,0.44
2022-11-23T08:09:10.345Z,0.72
2022-11-23T08:10:10.324Z,0.44
2022-11-23T08:11:10.328Z,0.61
2022-11-23T08:12:10.322Z,0.61
2022-11-23T08:13:10.319Z,0.72
2022-11-23T08:14:10.324Z,0.61
2022-11-23T08:15:10.325Z,0.61
2022-11-23T08:16:10.331Z,0.44
2022-11-23T08:17:10.330Z,1.06
2022-11-23T08:18:10.321Z,0.72
2022-11-23T08:19:10.320Z,0.72
2022-11-23T08:20:10.334Z,0.89
2022-11-23T08:21:10.328Z,0.44
2022-11-23T08:22:13.459Z,0.89
2022-11-23T08:23:10.330Z,0.89
2022-11-23T08:24:10.331Z,0.61
2022-11-23T08:25:10.350Z,1.33
2022-11-23T08:26:13.555Z,1.17
2022-11-23T08:27:10.327Z,1.72
2022-11-23T08:28:10.348Z,1.72
2022-11-23T08:29:10.337Z,1.61
2022-11-23T08:30:10.336Z,1.5
2022-11-23T08:31:10.337Z,1.17
2022-11-23T08:32:10.335Z,1.33
2022-11-23T08:33:10.333Z,1.33
2022-11-23T08:34:10.330Z,1.5
2022-11-23T08:35:10.331Z,1.61
2022-11-23T08:36:10.331Z,1.72
2022-11-23T08:37:10.328Z,1.61
2022-11-23T08:38:10.330Z,1.61
2022-11-23T08:39:10.324Z,1.61
2022-11-23T08:40:10.326Z,1.33
2022-11-23T08:41:10.414Z,1.33
2022-11-23T08:42:10.324Z,1.33
2022-11-23T08:43:10.335Z,1.06
2022-11-23T08:44:10.336Z,1.33
2022-11-23T08:45:10.336Z,0.89
2022-11-23T08:46:11.310Z,0.89
2022-11-23T08:47:10.335Z,0.61
2022-11-23T08:48:10.335Z,0.72
2022-11-23T08:49:10.329Z,0.17
2022-11-23T08:50:10.334Z,0.61
2022-11-23T08:51:10.332Z,0.61
2022-11-23T08:52:10.340Z,0.89
2022-11-23T08:53:10.334Z,0.89
2022-11-23T08:54:10.334Z,1.17
2022-11-23T08:55:10.329Z,1.5
2022-11-23T08:56:10.348Z,1.72
2022-11-23T08:57:10.360Z,1.61
2022-11-23T08:58:13.296Z,1.61
2022-11-23T08:59:10.339Z,1.5
2022-11-23T09:00:10.332Z,1.72
2022-11-23T09:01:10.392Z,1.33
2022-11-23T09:02:10.341Z,1.61
2022-11-23T09:03:10.341Z,1.72
2022-11-23T09:04:10.340Z,1.61
2022-11-23T09:05:10.335Z,1.72
2022-11-23T09:06:10.334Z,1.5
2022-11-23T09:07:10.371Z,1.5
2022-11-23T09:08:10.344Z,1.5
2022-11-23T09:09:10.339Z,1.33
2022-11-23T09:10:13.693Z,1.33
2022-11-23T09:11:10.337Z,1.61
2022-11-23T09:12:10.346Z,1.33
2022-11-23T09:13:10.389Z,1.61
2022-11-23T09:14:10.342Z,1.72
2022-11-23T09:15:10.344Z,1.72
2022-11-23T09:16:10.334Z,1.89
2022-11-23T09:17:10.349Z,1.72
2022-11-23T09:18:10.340Z,1.61
2022-11-23T09:19:10.336Z,1.72
2022-11-23T09:20:10.334Z,1.61
2022-11-23T09:21:10.339Z,1.33
2022-11-23T09:22:10.346Z,1.72
2022-11-23T09:23:13.893Z,1.5
2022-11-23T09:24:10.389Z,1.5
2022-11-23T09:25:10.386Z,1.5
2022-11-23T09:26:10.345Z,1.72
2022-11-23T09:27:10.346Z,1.72
2022-11-23T09:28:10.337Z,1.33
2022-11-23T09:29:10.364Z,1.33
2022-11-23T09:30:10.345Z,1.61
2022-11-23T09:31:10.340Z,1.61
2022-11-23T09:32:10.340Z,1.61
2022-11-23T09:33:10.347Z,1.61
2022-11-23T09:34:10.352Z,1.72
2022-11-23T09:35:10.334Z,1.72
2022-11-23T09:36:10.347Z,1.89
2022-11-23T09:37:10.351Z,2
2022-11-23T09:38:10.344Z,1.72
2022-11-23T09:39:10.340Z,2
2022-11-23T09:40:10.347Z,1.72
2022-11-23T09:41:10.345Z,1.72
2022-11-23T09:42:10.370Z,1.72
2022-11-23T09:43:10.349Z,2
2022-11-23T09:44:10.359Z,1.89
2022-11-23T09:45:10.372Z,2.17
2022-11-23T09:46:10.360Z,2.17
2022-11-23T09:47:10.348Z,1.5
2022-11-23T09:48:10.345Z,2.28
2022-11-23T09:49:10.353Z,2.72
2022-11-23T09:50:10.340Z,3
2022-11-23T09:51:10.344Z,3.17
2022-11-23T09:52:10.355Z,3
2022-11-23T09:53:10.350Z,2.72
2022-11-23T09:54:10.359Z,2.89
2022-11-23T09:55:10.361Z,3
2022-11-23T09:56:10.354Z,3
2022-11-23T09:57:10.358Z,3
2022-11-23T09:58:10.366Z,3.17
2022-11-23T09:59:10.373Z,2.89
2022-11-23T10:00:10.364Z,3
2022-11-23T10:01:10.415Z,2.72
2022-11-23T10:02:10.369Z,3.33
2022-11-23T10:03:10.372Z,3.44
2022-11-23T10:04:10.373Z,3.33
2022-11-23T10:05:10.364Z,3.33
2022-11-23T10:06:10.363Z,3.17
2022-11-23T10:07:10.431Z,3.44
2022-11-23T10:08:10.369Z,3.44
2022-11-23T10:09:10.369Z,3.33
2022-11-23T10:10:10.368Z,3.44
2022-11-23T10:11:10.360Z,3.56
2022-11-23T10:12:10.369Z,3.56
2022-11-23T10:13:10.365Z,2.89
2022-11-23T10:14:10.371Z,2.89
2022-11-23T10:15:10.366Z,2.44
2022-11-23T10:16:10.377Z,2.44
2022-11-23T10:17:10.409Z,2.17
2022-11-23T10:18:10.376Z,2.28
2022-11-23T10:19:10.380Z,2
2022-11-23T10:20:10.377Z,2.28
2022-11-23T10:21:10.372Z,1.89
2022-11-23T10:22:10.371Z,2.17
2022-11-23T10:23:10.372Z,2.17
2022-11-23T10:24:10.377Z,2.17
2022-11-23T10:25:10.379Z,2
2022-11-23T10:26:10.378Z,1.89
2022-11-23T10:27:10.385Z,1.89
2022-11-23T10:28:10.378Z,1.94
2022-11-23T10:29:10.378Z,2.11
2022-11-23T10:30:10.383Z,2
2022-11-23T10:31:10.383Z,2.17
2022-11-23T10:32:10.379Z,1.89
2022-11-23T10:33:10.407Z,1.89
2022-11-23T10:34:10.387Z,2.17
2022-11-23T10:35:10.386Z,2
2022-11-23T10:36:10.378Z,2.17
2022-11-23T10:37:10.378Z,2
2022-11-23T10:38:13.646Z,2.17
2022-11-23T10:39:10.379Z,1.72
2022-11-23T10:40:10.382Z,1.72
2022-11-23T10:41:10.383Z,1.72
2022-11-23T10:42:10.379Z,2.17
2022-11-23T10:43:10.386Z,2.44
2022-11-23T10:44:10.386Z,2.17
2022-11-23T10:45:10.388Z,1.72
2022-11-23T10:46:10.395Z,1.89
2022-11-23T10:47:10.384Z,1.61
2022-11-23T10:48:10.393Z,2.17
2022-11-23T10:49:10.428Z,1.61
2022-11-23T10:50:10.393Z,1.72
2022-11-23T10:51:10.385Z,2.44
2022-11-23T10:52:10.384Z,2.28
2022-11-23T10:53:10.386Z,2.72
2022-11-23T10:54:10.385Z,2.61
2022-11-23T10:55:10.391Z,2.61
2022-11-23T10:56:10.387Z,2.44
2022-11-23T10:57:10.390Z,2.28
2022-11-23T10:58:10.383Z,1.89
2022-11-23T10:59:10.479Z,2.28
2022-11-23T11:00:10.393Z,2.22
2022-11-23T11:01:10.399Z,2
2022-11-23T11:02:10.445Z,2.17
2022-11-23T11:03:10.390Z,2.17
2022-11-23T11:04:10.387Z,2.17
2022-11-23T11:05:10.414Z,1.89
2022-11-23T11:06:11.337Z,2.17
2022-11-23T11:07:10.416Z,2.17
2022-11-23T11:08:10.389Z,2.17
2022-11-23T11:09:13.497Z,2.17
2022-11-23T11:10:10.392Z,2.17
2022-11-23T11:11:10.383Z,2.17
2022-11-23T11:12:10.383Z,2.17
2022-11-23T11:13:10.390Z,2.28
2022-11-23T11:14:10.396Z,2.56
2022-11-23T11:15:11.922Z,2.44
2022-11-23T11:16:10.396Z,2.28
2022-11-23T11:17:10.385Z,2.56
2022-11-23T11:18:10.416Z,2.72
2022-11-23T11:19:10.392Z,3
2022-11-23T11:20:10.394Z,3
2022-11-23T11:21:10.417Z,2.89
2022-11-23T11:22:10.396Z,2.89
2022-11-23T11:23:10.396Z,2.72
2022-11-23T11:24:10.410Z,2.44
2022-11-23T11:25:10.399Z,2.61
2022-11-23T11:26:10.397Z,2.28
2022-11-23T11:27:10.403Z,2.28
2022-11-23T11:28:10.400Z,2.17
2022-11-23T11:29:10.397Z,2.17
2022-11-23T11:30:10.396Z,2.39
2022-11-23T11:31:10.399Z,2.22
2022-11-23T11:32:10.406Z,2.17
2022-11-23T11:33:10.402Z,2.17
2022-11-23T11:34:10.401Z,2.28
2022-11-23T11:35:10.405Z,2.39
2022-11-23T11:36:10.402Z,2.17
2022-11-23T11:37:10.421Z,2.61
2022-11-23T11:38:10.406Z,2.39
2022-11-23T11:39:19.051Z,2.67
2022-11-23T11:40:10.406Z,2.28
2022-11-23T11:41:10.418Z,2.61
2022-11-23T11:42:10.410Z,2.61
2022-11-23T11:43:10.397Z,3
2022-11-23T11:44:10.399Z,3.17
2022-11-23T11:45:10.418Z,3
2022-11-23T11:46:28.375Z,3.11
2022-11-23T11:47:10.410Z,2.61
2022-11-23T11:48:10.413Z,2.72
2022-11-23T11:49:10.411Z,2.56
2022-11-23T11:50:10.412Z,2.89
2022-11-23T11:51:10.416Z,2.89
2022-11-23T11:52:10.429Z,3.11
2022-11-23T11:53:10.468Z,2.89
2022-11-23T11:54:10.417Z,2.94
2022-11-23T11:55:10.496Z,3.17
2022-11-23T11:56:10.404Z,3
2022-11-23T11:57:10.438Z,3.33
2022-11-23T11:58:10.419Z,2.94
2022-11-23T11:59:10.435Z,2.89
2022-11-23T12:00:10.417Z,3.28
2022-11-23T12:01:10.414Z,3.33
2022-11-23T12:02:10.416Z,3.17
2022-11-23T12:03:10.509Z,2.89
2022-11-23T12:04:10.412Z,3.11
2022-11-23T12:05:10.416Z,3.17
2022-11-23T12:06:10.417Z,3.11
2022-11-23T12:07:10.472Z,2.72
2022-11-23T12:08:10.416Z,3.39
2022-11-23T12:09:10.441Z,2.94
2022-11-23T12:10:10.416Z,2.78
2022-11-23T12:11:10.416Z,2.28
2022-11-23T12:12:10.414Z,2.56
2022-11-23T12:13:10.415Z,2.39
2022-11-23T12:14:10.418Z,2.56
2022-11-23T12:15:26.517Z,2.56
2022-11-23T12:16:10.413Z,2.72
2022-11-23T12:17:31.756Z,3.11
2022-11-23T12:18:11.764Z,3
2022-11-23T12:19:10.423Z,2.72
2022-11-23T12:20:10.419Z,2.83
2022-11-23T12:21:10.722Z,2.56
2022-11-23T12:22:10.488Z,2.83
2022-11-23T12:23:10.419Z,2.83
2022-11-23T12:24:10.423Z,2.39
2022-11-23T12:25:10.445Z,2.39
2022-11-23T12:26:10.424Z,2.39
2022-11-23T12:27:10.414Z,2.56
2022-11-23T12:28:10.426Z,2.39
2022-11-23T12:29:10.423Z,2.56
2022-11-23T12:30:10.500Z,2.83
2022-11-23T12:31:10.428Z,2.83
2022-11-23T12:32:10.433Z,3
2022-11-23T12:33:10.421Z,3.39
2022-11-23T12:34:10.426Z,3.44
2022-11-23T12:35:10.426Z,3.83
2022-11-23T12:36:10.429Z,4.17
2022-11-23T12:37:10.431Z,4.39
2022-11-23T12:38:10.418Z,4.28
2022-11-23T12:39:10.430Z,3.67
2022-11-23T12:40:10.470Z,3.28
2022-11-23T12:41:10.459Z,2.83
2022-11-23T12:42:10.444Z,2.56
2022-11-23T12:43:10.434Z,2.72
2022-11-23T12:44:10.444Z,2.28
2022-11-23T12:45:10.439Z,2.39
2022-11-23T12:46:10.449Z,2.39
2022-11-23T12:47:10.453Z,2.56
2022-11-23T12:48:10.448Z,2.28
2022-11-23T12:49:10.452Z,2.11
2022-11-23T12:50:10.462Z,2.28
2022-11-23T12:51:10.534Z,2.56
2022-11-23T12:52:10.465Z,3
2022-11-23T12:53:10.458Z,3
2022-11-23T12:54:10.492Z,3.28
2022-11-23T12:55:12.857Z,3.11
2022-11-23T12:56:10.457Z,3.11
2022-11-23T12:57:10.496Z,3.11
2022-11-23T12:58:10.465Z,3
2022-11-23T12:59:10.468Z,3.28
2022-11-23T13:00:10.462Z,3.11
2022-11-23T13:01:10.577Z,2.83
2022-11-23T13:02:10.518Z,2.72
2022-11-23T13:03:10.480Z,2.39
2022-11-23T13:04:10.471Z,2.72
2022-11-23T13:05:10.470Z,2.39
2022-11-23T13:06:10.475Z,3.11
2022-11-23T13:07:27.991Z,3.28
2022-11-23T13:08:10.499Z,3.28
2022-11-23T13:09:10.477Z,3.39
2022-11-23T13:10:10.484Z,3.28
2022-11-23T13:11:10.478Z,3.39
2022-11-23T13:12:10.479Z,3.56
2022-11-23T13:13:15.545Z,3.67
2022-11-23T13:14:10.485Z,3.67
2022-11-23T13:15:10.486Z,3.39
2022-11-23T13:16:10.678Z,4.11
2022-11-23T13:17:10.623Z,3.94
2022-11-23T13:18:10.485Z,4.17
2022-11-23T13:19:10.486Z,4.56
2022-11-23T13:20:10.499Z,4.44